Rockwood, Oregon
Current Conditions -  °F | °C
As of 6:53 PM on Saturday 20 Dec 2014 (Local Time) from KTTD Reporting Station
Light Rain Light Rain  
Wind Chill: 58°   Ceiling: 2300
Heat Index: 58°   Visibility: 9mi
Dew Point: 55°   Wind: 15mph
Humidity: 90%   Direction: 230°SW
Pressure: 29.63"   Gusts: 25mph
Location:  45.5135°N, 122.496°W
Report Text: KTTD 210253Z 23013G22KT 9SM -RA SCT016 BKN023 OVC031 14/13 A2963 RMK AO2 SLP034 P0002 60009 T01440128 55006
Loading
Personal Weather Stations






























Interactive Weather Map New forecast layout! Learn more

10-Day Weather Forecast

Advertisements
Track Severe Weather on mobile